Time;durP1;ratioP1;P1;durP2;ratioP2;P2;SDS_P1;SDS_P2;PMS_P1;PMS_P2;Temp;Humidity;BMP_temperature;BMP_pressure;BME280_temperature;BME280_humidity;BME280_pressure;Samples;Min_cycle;Max_cycle;Signal;HPM_P1;HPM_P2
2022/12/07 00:00:08;;;;;;;16.27;1.98;;;;;;;;;;5074466;28;20054;-77
2022/12/07 00:02:34;;;;;;;14.77;2.17;;;;;;;;;;5074555;28;20485;-77
2022/12/07 00:05:00;;;;;;;11.20;2.80;;;;;;;;;;5074335;28;20128;-77
2022/12/07 00:07:27;;;;;;;15.75;3.13;;;;;;;;;;5074683;28;20048;-75
2022/12/07 00:09:53;;;;;;;9.50;1.73;;;;;;;;;;5074132;28;20063;-76
2022/12/07 00:12:19;;;;;;;10.02;1.63;;;;;;;;;;5073441;28;20135;-75
2022/12/07 00:14:45;;;;;;;12.60;2.00;;;;;;;;;;5074205;28;20051;-75
2022/12/07 00:17:11;;;;;;;13.68;1.98;;;;;;;;;;5074042;28;20044;-76
2022/12/07 00:19:37;;;;;;;11.90;1.45;;;;;;;;;;5073632;28;20405;-75
2022/12/07 00:22:03;;;;;;;13.07;1.83;;;;;;;;;;5073843;28;20045;-75
2022/12/07 00:24:29;;;;;;;10.38;1.48;;;;;;;;;;5074126;28;20048;-75
2022/12/07 00:26:55;;;;;;;12.38;1.70;;;;;;;;;;5073863;28;20036;-75
2022/12/07 00:29:23;;;;;;;12.55;1.80;;;;;;;;;;5074309;28;20056;-75
2022/12/07 00:31:49;;;;;;;12.57;1.50;;;;;;;;;;5074096;28;20048;-75
2022/12/07 00:34:19;;;;;;;6.47;1.50;;;;;;;;;;5073705;28;20048;-75
2022/12/07 00:36:45;;;;;;;13.77;1.60;;;;;;;;;;5073975;28;20400;-75
2022/12/07 00:39:11;;;;;;;13.65;2.00;;;;;;;;;;5073683;28;20153;-75
2022/12/07 00:41:37;;;;;;;14.85;2.17;;;;;;;;;;5073914;28;20435;-75
2022/12/07 00:44:03;;;;;;;11.07;1.95;;;;;;;;;;5073608;28;20397;-75
2022/12/07 00:46:30;;;;;;;10.00;1.75;;;;;;;;;;5073847;28;20059;-75
2022/12/07 00:48:56;;;;;;;14.15;1.60;;;;;;;;;;5073817;28;20123;-75
2022/12/07 00:51:24;;;;;;;10.50;2.00;;;;;;;;;;5073730;28;20040;-75
2022/12/07 00:53:51;;;;;;;8.13;1.35;;;;;;;;;;5073692;28;20049;-75
2022/12/07 00:56:21;;;;;;;8.88;1.70;;;;;;;;;;5073011;28;20613;-75
2022/12/07 00:58:54;;;;;;;9.63;1.70;;;;;;;;;;5073250;28;20428;-76
2022/12/07 01:01:20;;;;;;;7.55;1.98;;;;;;;;;;5073404;28;20114;-76
2022/12/07 01:03:46;;;;;;;11.35;1.70;;;;;;;;;;5073542;28;20496;-75
2022/12/07 01:06:16;;;;;;;6.43;1.23;;;;;;;;;;5073088;28;20453;-76
2022/12/07 01:08:42;;;;;;;6.07;1.15;;;;;;;;;;5073484;28;20044;-75
2022/12/07 01:11:10;;;;;;;8.50;1.40;;;;;;;;;;5073176;28;20370;-76
2022/12/07 01:13:36;;;;;;;9.25;1.67;;;;;;;;;;5073402;28;20453;-75
2022/12/07 01:16:04;;;;;;;6.13;1.00;;;;;;;;;;5073069;28;20055;-76
2022/12/07 01:18:31;;;;;;;14.88;1.67;;;;;;;;;;5073316;28;20087;-76
2022/12/07 01:21:16;;;;;;;12.45;1.50;;;;;;;;;;5073473;28;20083;-76
2022/12/07 01:23:42;;;;;;;;;;;;;;;;;;5073844;28;20084;-75
2022/12/07 01:26:11;;;;;;;11.70;1.43;;;;;;;;;;5072851;28;19963;-76
2022/12/07 01:28:37;;;;;;;8.93;1.50;;;;;;;;;;5073390;28;20328;-76
2022/12/07 01:31:07;;;;;;;8.82;1.40;;;;;;;;;;5072747;28;20048;-76
2022/12/07 01:33:35;;;;;;;12.82;1.40;;;;;;;;;;5071788;28;20059;-76
2022/12/07 01:36:02;;;;;;;10.23;1.52;;;;;;;;;;5073055;28;20040;-76
2022/12/07 01:38:29;;;;;;;13.27;1.60;;;;;;;;;;5072153;28;20048;-76
2022/12/07 01:40:55;;;;;;;9.40;1.30;;;;;;;;;;5072991;28;20127;-76
2022/12/07 01:43:23;;;;;;;14.63;1.73;;;;;;;;;;5072803;28;20048;-76
2022/12/07 01:45:49;;;;;;;11.93;1.40;;;;;;;;;;5073054;28;20174;-76
2022/12/07 01:48:17;;;;;;;7.38;1.83;;;;;;;;;;5072401;28;20491;-76
2022/12/07 01:50:45;;;;;;;10.00;1.27;;;;;;;;;;5072938;28;20127;-76
2022/12/07 01:53:12;;;;;;;11.48;1.40;;;;;;;;;;5072697;28;20087;-76
2022/12/07 01:55:40;;;;;;;9.27;1.05;;;;;;;;;;5072848;28;20120;-76
2022/12/07 01:58:07;;;;;;;8.15;1.30;;;;;;;;;;5072350;28;20139;-76
2022/12/07 02:00:33;;;;;;;13.73;1.38;;;;;;;;;;5072881;28;20626;-76
2022/12/07 02:03:02;;;;;;;9.05;1.65;;;;;;;;;;5072043;28;20139;-76
2022/12/07 02:05:29;;;;;;;6.15;1.10;;;;;;;;;;5072533;28;20040;-76
2022/12/07 02:07:56;;;;;;;9.63;1.35;;;;;;;;;;5072847;28;20127;-76
2022/12/07 02:10:23;;;;;;;8.52;1.25;;;;;;;;;;5072490;28;20045;-76
2022/12/07 02:12:53;;;;;;;8.55;1.20;;;;;;;;;;5072752;28;20136;-76
2022/12/07 02:15:21;;;;;;;8.80;1.30;;;;;;;;;;5072375;28;20102;-76
2022/12/07 02:17:59;;;;;;;9.85;1.27;;;;;;;;;;5072695;28;20127;-76
2022/12/07 02:20:28;;;;;;;8.20;1.30;;;;;;;;;;5072295;28;20140;-76
2022/12/07 02:23:03;;;;;;;11.13;2.28;;;;;;;;;;5072690;28;20044;-76
2022/12/07 02:25:29;;;;;;;13.10;1.27;;;;;;;;;;5072430;28;20045;-76
2022/12/07 02:28:12;;;;;;;9.95;1.65;;;;;;;;;;5072612;28;20088;-76
2022/12/07 02:30:43;;;;;;;10.70;1.45;;;;;;;;;;5072663;28;20186;-76
2022/12/07 02:33:12;;;;;;;10.45;1.10;;;;;;;;;;5072367;28;20131;-76
2022/12/07 02:35:43;;;;;;;10.38;1.35;;;;;;;;;;5072618;28;20048;-76
2022/12/07 02:38:15;;;;;;;11.05;1.40;;;;;;;;;;5072375;28;20450;-76
2022/12/07 02:40:48;;;;;;;8.80;1.75;;;;;;;;;;5072702;28;20075;-75
2022/12/07 02:43:17;;;;;;;8.50;1.73;;;;;;;;;;5073286;28;20052;-76
2022/12/07 02:45:45;;;;;;;13.95;1.40;;;;;;;;;;5076347;28;20182;-76
2022/12/07 02:48:12;;;;;;;10.93;1.40;;;;;;;;;;5075909;28;20252;-76
2022/12/07 02:50:38;;;;;;;10.70;1.38;;;;;;;;;;5074771;28;20131;-76
2022/12/07 02:53:04;;;;;;;8.18;1.20;;;;;;;;;;5075057;28;20040;-76
2022/12/07 02:55:39;;;;;;;15.52;1.60;;;;;;;;;;5075655;28;20366;-76
2022/12/07 02:58:23;;;;;;;12.63;2.25;;;;;;;;;;5075868;28;20155;-76
2022/12/07 03:00:59;;;;;;;10.98;1.98;;;;;;;;;;5075861;28;20122;-76
2022/12/07 03:03:26;;;;;;;6.32;1.33;;;;;;;;;;5075672;28;20084;-76
2022/12/07 03:06:00;;;;;;;9.43;1.38;;;;;;;;;;5075738;28;20127;-76
2022/12/07 03:08:38;;;;;;;12.02;1.73;;;;;;;;;;5075559;28;20175;-76
2022/12/07 03:11:07;;;;;;;7.40;1.20;;;;;;;;;;5075727;28;20060;-76
2022/12/07 03:13:42;;;;;;;9.00;1.40;;;;;;;;;;5075338;28;20052;-76
2022/12/07 03:16:27;;;;;;;10.32;1.10;;;;;;;;;;5075561;28;20037;-76
2022/12/07 03:19:13;;;;;;;8.27;1.30;;;;;;;;;;5075636;28;20071;-76
2022/12/07 03:21:45;;;;;;;6.75;1.10;;;;;;;;;;5074430;28;20472;-76
2022/12/07 03:24:16;;;;;;;13.38;1.50;;;;;;;;;;5075483;28;20044;-76
2022/12/07 03:26:44;;;;;;;11.15;1.83;;;;;;;;;;5075360;28;20045;-76
2022/12/07 03:29:13;;;;;;;7.80;1.15;;;;;;;;;;5075389;28;20127;-76
2022/12/07 03:31:42;;;;;;;10.45;1.02;;;;;;;;;;5075029;28;20059;-76
2022/12/07 03:34:14;;;;;;;10.50;1.30;;;;;;;;;;5075316;28;20049;-76
2022/12/07 03:36:45;;;;;;;7.15;1.20;;;;;;;;;;5075047;28;20131;-76
2022/12/07 03:39:14;;;;;;;7.45;1.10;;;;;;;;;;5075379;28;20045;-76
2022/12/07 03:41:41;;;;;;;10.20;1.17;;;;;;;;;;5074795;28;20051;-76
2022/12/07 03:44:07;;;;;;;6.18;1.20;;;;;;;;;;5075113;28;20047;-76
2022/12/07 03:46:37;;;;;;;9.60;1.70;;;;;;;;;;5074817;28;20120;-76
2022/12/07 03:49:09;;;;;;;9.23;1.45;;;;;;;;;;5075138;28;20123;-76
2022/12/07 03:51:42;;;;;;;9.32;1.25;;;;;;;;;;5074787;28;20052;-76
2022/12/07 03:54:14;;;;;;;11.05;1.35;;;;;;;;;;5074645;28;20052;-76
2022/12/07 03:56:41;;;;;;;12.00;1.25;;;;;;;;;;5074174;28;20079;-76
2022/12/07 03:59:07;;;;;;;9.13;1.10;;;;;;;;;;5074766;28;20490;-76
2022/12/07 04:01:34;;;;;;;9.73;1.85;;;;;;;;;;5090346;28;20492;-76
2022/12/07 04:04:00;;;;;;;11.18;1.63;;;;;;;;;;5074808;28;20135;-76
2022/12/07 04:06:26;;;;;;;11.27;1.75;;;;;;;;;;5074457;28;20043;-76
2022/12/07 04:08:52;;;;;;;7.28;1.40;;;;;;;;;;5073437;28;20408;-76
2022/12/07 04:11:18;;;;;;;7.20;1.10;;;;;;;;;;5074610;28;20048;-76
2022/12/07 04:16:29;;;;;;;9.43;1.20;;;;;;;;;;5074253;28;20463;-76
2022/12/07 04:18:55;;;;;;;6.25;1.27;;;;;;;;;;5074340;28;20052;-76
2022/12/07 04:21:21;;;;;;;9.43;1.20;;;;;;;;;;5074135;28;20051;-76
2022/12/07 04:23:47;;;;;;;11.98;2.25;;;;;;;;;;5074332;28;20048;-76
2022/12/07 04:26:13;;;;;;;10.50;1.90;;;;;;;;;;5074288;28;20119;-76
2022/12/07 04:28:39;;;;;;;10.23;1.25;;;;;;;;;;5073913;28;20045;-76
2022/12/07 04:31:05;;;;;;;8.32;1.40;;;;;;;;;;5074152;28;20051;-76
2022/12/07 04:33:31;;;;;;;10.68;1.45;;;;;;;;;;5072916;28;20468;-76
2022/12/07 04:35:57;;;;;;;5.03;1.02;;;;;;;;;;5074069;28;20046;-76
2022/12/07 04:38:24;;;;;;;12.13;1.85;;;;;;;;;;5073715;28;20048;-76
2022/12/07 04:40:50;;;;;;;11.52;1.40;;;;;;;;;;5073951;28;20123;-76
2022/12/07 04:43:16;;;;;;;7.93;1.50;;;;;;;;;;5073914;28;20472;-76
2022/12/07 04:45:46;;;;;;;8.27;1.13;;;;;;;;;;5073579;28;20420;-76
2022/12/07 04:48:12;;;;;;;9.35;1.77;;;;;;;;;;5072657;28;20135;-76
2022/12/07 04:50:38;;;;;;;9.48;1.20;;;;;;;;;;5073549;28;20135;-76
2022/12/07 04:53:04;;;;;;;13.07;1.30;;;;;;;;;;5073913;28;20143;-76
2022/12/07 04:55:30;;;;;;;7.10;1.95;;;;;;;;;;5073318;28;20046;-76
2022/12/07 04:57:56;;;;;;;11.32;1.10;;;;;;;;;;5073671;28;20048;-76
2022/12/07 05:00:23;;;;;;;7.18;1.30;;;;;;;;;;5073729;28;20139;-76
2022/12/07 05:02:49;;;;;;;9.45;1.45;;;;;;;;;;5073238;28;20053;-76
2022/12/07 05:05:15;;;;;;;9.65;1.42;;;;;;;;;;5073543;28;20127;-76
2022/12/07 05:07:41;;;;;;;6.97;1.30;;;;;;;;;;5072010;28;20091;-76
2022/12/07 05:10:07;;;;;;;11.45;1.23;;;;;;;;;;5073450;28;20044;-76
2022/12/07 05:12:33;;;;;;;7.55;1.23;;;;;;;;;;5073177;28;20142;-76
2022/12/07 05:14:59;;;;;;;9.23;1.33;;;;;;;;;;5073243;28;20160;-76
2022/12/07 05:17:26;;;;;;;12.18;1.50;;;;;;;;;;5073376;28;20051;-76
2022/12/07 05:19:52;;;;;;;5.75;1.00;;;;;;;;;;5073207;28;20135;-76
2022/12/07 05:22:18;;;;;;;11.80;1.33;;;;;;;;;;5073244;28;20055;-77
2022/12/07 05:24:44;;;;;;;11.88;1.40;;;;;;;;;;5073050;28;20116;-76
2022/12/07 05:27:10;;;;;;;11.07;1.42;;;;;;;;;;5073149;28;20080;-76
2022/12/07 05:29:36;;;;;;;7.70;1.50;;;;;;;;;;5072857;28;20044;-76
2022/12/07 05:32:02;;;;;;;9.85;1.77;;;;;;;;;;5072464;28;20103;-76
2022/12/07 05:34:28;;;;;;;8.25;1.35;;;;;;;;;;5073178;28;20162;-76
2022/12/07 05:36:54;;;;;;;9.52;1.50;;;;;;;;;;5071889;28;20052;-76
2022/12/07 05:39:21;;;;;;;7.18;1.40;;;;;;;;;;5073125;28;20392;-76
2022/12/07 05:44:31;;;;;;;11.52;1.55;;;;;;;;;;5072405;28;20476;-76
2022/12/07 05:46:57;;;;;;;11.80;1.75;;;;;;;;;;5071977;28;20083;-76
2022/12/07 05:49:23;;;;;;;9.75;2.00;;;;;;;;;;5073017;28;20127;-76
2022/12/07 05:51:50;;;;;;;10.77;1.50;;;;;;;;;;5072656;28;20135;-76
2022/12/07 05:54:16;;;;;;;11.82;1.77;;;;;;;;;;5088471;28;20048;-76
2022/12/07 05:56:42;;;;;;;9.20;1.10;;;;;;;;;;5072477;28;20044;-76
2022/12/07 05:59:30;;;;;;;12.38;1.60;;;;;;;;;;5073019;28;20132;-76
2022/12/07 06:01:59;;;;;;;10.43;1.40;;;;;;;;;;5072213;28;20052;-76
2022/12/07 06:04:26;;;;;;;10.77;2.08;;;;;;;;;;5072856;28;20477;-76
2022/12/07 06:06:52;;;;;;;10.75;1.80;;;;;;;;;;5072203;28;21000;-76
2022/12/07 06:09:19;;;;;;;8.80;1.90;;;;;;;;;;5072820;28;20045;-76
2022/12/07 06:14:30;;;;;;;7.95;1.48;;;;;;;;;;5108815;28;20057;-76
2022/12/07 06:16:56;;;;;;;13.57;1.48;;;;;;;;;;5092646;28;20140;-76
2022/12/07 06:19:22;;;;;;;9.20;1.30;;;;;;;;;;5095605;28;20059;-76
2022/12/07 06:21:48;;;;;;;7.70;1.50;;;;;;;;;;5096727;28;20040;-76
2022/12/07 06:24:15;;;;;;;11.18;1.52;;;;;;;;;;5097118;28;20426;-76
2022/12/07 06:26:41;;;;;;;8.95;1.58;;;;;;;;;;5096647;28;20058;-76
2022/12/07 06:29:08;;;;;;;8.07;1.92;;;;;;;;;;5095630;28;20131;-76
2022/12/07 06:31:34;;;;;;;11.02;1.80;;;;;;;;;;5095556;28;20087;-76
2022/12/07 06:34:08;;;;;;;10.10;2.10;;;;;;;;;;5096784;28;20127;-76
2022/12/07 06:36:34;;;;;;;9.75;1.70;;;;;;;;;;5096566;28;20130;-76
2022/12/07 06:39:00;;;;;;;14.32;2.35;;;;;;;;;;5096357;28;20067;-76
2022/12/07 06:41:26;;;;;;;14.38;1.40;;;;;;;;;;5096586;28;20135;-76
2022/12/07 06:43:52;;;;;;;10.00;1.38;;;;;;;;;;5096251;28;20126;-76
2022/12/07 06:46:18;;;;;;;8.93;1.77;;;;;;;;;;5095562;28;20051;-76
2022/12/07 06:48:44;;;;;;;6.75;1.38;;;;;;;;;;5096130;28;20087;-76
2022/12/07 06:51:11;;;;;;;8.48;1.90;;;;;;;;;;5096424;28;20127;-76
2022/12/07 06:53:37;;;;;;;13.88;2.60;;;;;;;;;;5096403;28;20186;-76
2022/12/07 06:56:03;;;;;;;12.45;3.30;;;;;;;;;;5096375;28;20058;-76
2022/12/07 06:58:30;;;;;;;11.07;2.72;;;;;;;;;;5095017;28;21167;-76
2022/12/07 07:00:56;;;;;;;11.27;2.70;;;;;;;;;;5095018;28;20109;-76
2022/12/07 07:03:22;;;;;;;15.65;2.95;;;;;;;;;;5096290;28;20127;-76
2022/12/07 07:05:48;;;;;;;14.32;2.00;;;;;;;;;;5095813;28;20040;-76
2022/12/07 07:08:15;;;;;;;11.63;2.90;;;;;;;;;;5095985;28;20048;-75
2022/12/07 07:10:41;;;;;;;8.85;1.55;;;;;;;;;;5094389;28;20048;-75
2022/12/07 07:13:07;;;;;;;10.82;1.70;;;;;;;;;;5094740;28;20048;-76
2022/12/07 07:15:34;;;;;;;14.77;1.90;;;;;;;;;;5095486;28;20453;-75
2022/12/07 07:18:00;;;;;;;14.80;1.80;;;;;;;;;;5094605;28;20044;-76
2022/12/07 07:20:27;;;;;;;11.65;1.67;;;;;;;;;;5095784;28;20135;-75
2022/12/07 07:22:56;;;;;;;16.83;2.10;;;;;;;;;;5095397;28;20189;-76
2022/12/07 07:25:22;;;;;;;13.43;1.95;;;;;;;;;;5095779;28;20048;-76
2022/12/07 07:27:48;;;;;;;12.73;2.28;;;;;;;;;;5095362;28;20127;-76
2022/12/07 07:30:14;;;;;;;10.57;1.60;;;;;;;;;;5094320;28;20052;-76
2022/12/07 07:32:40;;;;;;;7.82;1.50;;;;;;;;;;5094722;28;20157;-76
2022/12/07 07:35:06;;;;;;;11.15;1.77;;;;;;;;;;5095210;28;20047;-76
2022/12/07 07:37:33;;;;;;;13.27;2.08;;;;;;;;;;5095479;28;20101;-76
2022/12/07 07:39:59;;;;;;;16.10;2.75;;;;;;;;;;5093994;28;20081;-76
2022/12/07 07:42:25;;;;;;;12.80;2.60;;;;;;;;;;5095469;28;20040;-76
2022/12/07 07:44:51;;;;;;;11.88;2.53;;;;;;;;;;5094886;28;20528;-76
2022/12/07 07:47:17;;;;;;;16.67;2.58;;;;;;;;;;5094363;28;20049;-77
2022/12/07 07:49:44;;;;;;;16.45;2.50;;;;;;;;;;5095315;28;20052;-76
2022/12/07 07:52:10;;;;;;;15.38;2.70;;;;;;;;;;5095204;28;20416;-76
2022/12/07 07:54:36;;;;;;;14.93;3.65;;;;;;;;;;5095209;28;20136;-76
2022/12/07 07:57:02;;;;;;;11.90;2.50;;;;;;;;;;5094635;28;20044;-77
2022/12/07 07:59:29;;;;;;;15.75;2.30;;;;;;;;;;5094590;28;20514;-76
2022/12/07 08:01:55;;;;;;;17.58;2.33;;;;;;;;;;5093209;28;20514;-76
2022/12/07 08:04:21;;;;;;;14.30;2.10;;;;;;;;;;5094116;28;20484;-74
2022/12/07 08:06:47;;;;;;;18.60;2.20;;;;;;;;;;5094608;28;20046;-76
2022/12/07 08:09:13;;;;;;;13.55;2.13;;;;;;;;;;5094891;28;20384;-74
2022/12/07 08:11:39;;;;;;;13.30;2.17;;;;;;;;;;5094913;28;20054;-76
2022/12/07 08:14:05;;;;;;;13.43;2.40;;;;;;;;;;5094519;28;20102;-77
2022/12/07 08:16:31;;;;;;;10.52;2.40;;;;;;;;;;5094880;28;20143;-80
2022/12/07 08:18:58;;;;;;;10.55;1.70;;;;;;;;;;5094438;28;20119;-80
2022/12/07 08:21:24;;;;;;;15.40;2.53;;;;;;;;;;5094912;28;20051;-80
2022/12/07 08:23:50;;;;;;;13.23;1.90;;;;;;;;;;5094353;28;20083;-80
2022/12/07 08:26:17;;;;;;;11.57;2.42;;;;;;;;;;5094906;28;20043;-80
2022/12/07 08:28:44;;;;;;;17.48;2.15;;;;;;;;;;5094528;28;20062;-79
2022/12/07 08:31:13;;;;;;;12.63;2.13;;;;;;;;;;5094175;28;20063;-80
2022/12/07 08:33:39;;;;;;;14.35;2.22;;;;;;;;;;5094478;28;20491;-80
2022/12/07 08:36:06;;;;;;;12.40;2.10;;;;;;;;;;5094039;28;20046;-80
2022/12/07 08:38:33;;;;;;;12.98;2.35;;;;;;;;;;5093376;28;20185;-79
2022/12/07 08:40:59;;;;;;;15.63;2.30;;;;;;;;;;5093779;28;20083;-80
2022/12/07 08:43:26;;;;;;;12.20;2.60;;;;;;;;;;5094209;28;20515;-80
2022/12/07 08:46:13;;;;;;;16.92;2.42;;;;;;;;;;5093904;28;20040;-82
2022/12/07 08:49:01;;;;;;;10.35;1.92;;;;;;;;;;5094127;28;20044;-79
2022/12/07 08:51:27;;;;;;;12.65;2.47;;;;;;;;;;5094285;28;20126;-77
2022/12/07 08:53:55;;;;;;;16.02;2.38;;;;;;;;;;5093753;28;20044;-81
2022/12/07 08:56:21;;;;;;;7.93;1.98;;;;;;;;;;5092834;28;20036;-81
2022/12/07 08:58:47;;;;;;;15.75;2.38;;;;;;;;;;5093784;28;20060;-79
2022/12/07 09:01:13;;;;;;;9.75;2.10;;;;;;;;;;5093671;28;20040;-81
2022/12/07 09:03:40;;;;;;;12.38;2.03;;;;;;;;;;5093861;28;20503;-81
2022/12/07 09:06:06;;;;;;;12.48;2.25;;;;;;;;;;5093590;28;20044;-78
2022/12/07 09:08:39;;;;;;;9.38;1.80;;;;;;;;;;5093778;28;20472;-79
2022/12/07 09:11:05;;;;;;;14.55;2.30;;;;;;;;;;5093537;28;20106;-80
2022/12/07 09:13:31;;;;;;;7.28;1.70;;;;;;;;;;5092807;28;20123;-80
2022/12/07 09:15:57;;;;;;;12.15;2.00;;;;;;;;;;5093354;28;20044;-80
2022/12/07 09:18:24;;;;;;;9.45;1.80;;;;;;;;;;5093001;28;20499;-80
2022/12/07 09:20:50;;;;;;;8.00;1.70;;;;;;;;;;5093574;28;20054;-82
2022/12/07 09:23:17;;;;;;;7.90;1.40;;;;;;;;;;5093350;28;20052;-82
2022/12/07 09:25:43;;;;;;;9.30;1.63;;;;;;;;;;5092391;28;20127;-79
2022/12/07 09:28:09;;;;;;;9.45;1.63;;;;;;;;;;5093238;28;20039;-80
2022/12/07 09:30:35;;;;;;;10.45;1.95;;;;;;;;;;5093649;28;20047;-82
2022/12/07 09:33:01;;;;;;;7.18;1.52;;;;;;;;;;5093155;28;20524;-81
2022/12/07 09:35:27;;;;;;;11.18;1.70;;;;;;;;;;5093334;28;20154;-80
2022/12/07 09:37:54;;;;;;;13.38;2.50;;;;;;;;;;5093771;28;20130;-79
2022/12/07 09:40:21;;;;;;;10.10;1.65;;;;;;;;;;5094355;28;20473;-82
2022/12/07 09:42:51;;;;;;;11.27;2.30;;;;;;;;;;5093423;28;20480;-81
2022/12/07 09:45:20;;;;;;;9.77;1.67;;;;;;;;;;5093323;28;20204;-80
2022/12/07 09:47:46;;;;;;;10.90;1.88;;;;;;;;;;5092640;28;20073;-79
2022/12/07 09:50:17;;;;;;;11.52;2.65;;;;;;;;;;5093165;28;20048;-77
2022/12/07 09:52:45;;;;;;;6.82;1.48;;;;;;;;;;5091522;28;20055;-80
2022/12/07 09:55:13;;;;;;;10.88;1.98;;;4.80;99.90;;;;;;5092884;28;20086;-77
2022/12/07 09:57:39;;;;;;;10.02;1.63;;;4.90;99.90;;;;;;5093396;28;20043;-79
2022/12/07 10:00:15;;;;;;;11.10;1.60;;;4.90;99.90;;;;;;5092629;28;20063;-80
2022/12/07 10:02:47;;;;;;;10.32;1.80;;;;;;;;;;5093757;28;20040;-78
2022/12/07 10:05:22;;;;;;;11.80;2.22;;;5.20;99.90;;;;;;5089359;28;20460;-78
2022/12/07 10:07:47;;;;;;;11.60;1.70;;;5.00;99.90;;;;;;5087868;28;20063;-80
2022/12/07 10:10:30;;;;;;;6.47;1.60;;;4.90;99.90;;;;;;5090211;28;20121;-79
2022/12/07 10:13:01;;;;;;;9.35;1.70;;;4.90;99.90;;;;;;5091852;28;20108;-77
2022/12/07 10:15:45;;;;;;;12.43;1.73;;;5.00;99.90;;;;;;5091513;28;20036;-77
2022/12/07 10:18:26;;;;;;;9.65;1.85;;;5.00;99.90;;;;;;5090757;28;20091;-78
2022/12/07 10:21:07;;;;;;;13.45;2.47;;;5.00;99.90;;;;;;5091723;28;20093;-78
2022/12/07 10:23:34;;;;;;;14.00;2.17;;;5.00;99.90;;;;;;5091436;28;20518;-79
2022/12/07 10:26:21;;;;;;;10.88;1.92;;;5.00;99.90;;;;;;5091493;28;20036;-78
2022/12/07 10:28:48;;;;;;;11.98;3.22;;;5.00;99.90;;;;;;5089937;28;20400;-78
2022/12/07 10:31:20;;;;;;;12.52;2.80;;;5.00;99.90;;;;;;5091352;28;20035;-77
2022/12/07 10:33:55;;;;;;;10.43;3.20;;;5.00;99.90;;;;;;5091872;28;20052;-78
2022/12/07 10:36:24;;;;;;;17.52;4.00;;;5.00;99.90;;;;;;5090899;28;20051;-78
2022/12/07 10:38:58;;;;;;;13.35;2.90;;;5.10;99.90;;;;;;5090133;28;20127;-80
2022/12/07 10:41:24;;;;;;;11.13;2.95;;;5.00;99.90;;;;;;5091112;28;20977;-77
2022/12/07 10:43:55;;;;;;;6.00;1.83;;;5.10;99.90;;;;;;5091815;28;20119;-80
2022/12/07 10:46:30;;;;;;;18.83;2.10;;;5.20;99.90;;;;;;5090091;28;20039;-79
2022/12/07 10:49:23;;;;;;;10.10;1.65;;;5.30;99.90;;;;;;5090194;28;20056;-79
2022/12/07 10:52:00;;;;;;;9.55;1.77;;;5.40;99.90;;;;;;5089841;28;20123;-77
2022/12/07 10:54:36;;;;;;;7.53;1.60;;;5.50;99.90;;;;;;5091398;28;20048;-82
2022/12/07 10:57:30;;;;;;;13.90;3.22;;;5.50;99.90;;;;;;5090804;28;20123;-79
2022/12/07 11:00:18;;;;;;;18.00;3.17;;;5.50;99.90;;;;;;5089892;28;20055;-80
2022/12/07 11:03:05;;;;;;;28.75;4.22;;;5.50;99.90;;;;;;5091371;28;20054;-77
2022/12/07 11:06:07;;;;;;;8.00;1.55;;;5.40;99.90;;;;;;5093474;28;20056;-78
2022/12/07 11:08:42;;;;;;;5.47;1.00;;;5.40;99.90;;;;;;5093314;28;20553;-77
2022/12/07 11:11:16;;;;;;;7.35;1.48;;;5.30;99.90;;;;;;5094850;28;20109;-78
2022/12/07 11:13:47;;;;;;;6.53;1.20;;;5.30;99.90;;;;;;5093853;28;20050;-81
2022/12/07 11:16:42;;;;;;;5.57;1.10;;;5.30;99.90;;;;;;5094324;28;20036;-78
2022/12/07 11:19:11;;;;;;;7.28;1.13;;;5.30;99.90;;;;;;5092987;28;21032;-79
2022/12/07 11:21:55;;;;;;;6.15;1.33;;;5.20;99.90;;;;;;5094794;28;20047;-88
2022/12/07 11:24:35;;;;;;;6.15;1.83;;;5.30;99.90;;;;;;5094023;28;20051;-77
2022/12/07 11:27:25;;;;;;;7.93;1.98;;;5.20;99.90;;;;;;5095689;28;20521;-77
2022/12/07 11:30:20;;;;;;;5.95;2.00;;;5.30;99.90;;;;;;5094822;28;20058;-78
2022/12/07 11:33:13;;;;;;;8.93;2.65;;;5.30;99.90;;;;;;5091468;28;20056;-79
2022/12/07 11:35:50;;;;;;;8.65;1.52;;;5.30;99.90;;;;;;5076758;28;20048;-80
2022/12/07 11:38:18;;;;;;;6.95;1.27;;;5.20;99.90;;;;;;5095466;28;20055;-80
2022/12/07 11:40:53;;;;;;;5.18;1.00;;;5.30;99.90;;;;;;5095492;28;20044;-79
2022/12/07 11:43:27;;;;;;;10.57;1.48;;;5.20;99.90;;;;;;5095285;28;20040;-80
2022/12/07 11:46:10;;;;;;;7.55;1.30;;;5.30;99.90;;;;;;5095610;28;20112;-80
2022/12/07 11:49:03;;;;;;;7.50;1.33;;;5.40;99.90;;;;;;5094846;28;20113;-82
2022/12/07 11:51:35;;;;;;;7.38;1.55;;;5.50;99.90;;;;;;5095069;28;20048;-81
2022/12/07 11:54:26;;;;;;;9.45;1.70;;;5.50;99.90;;;;;;5095524;28;20036;-82
2022/12/07 11:56:55;;;;;;;13.15;2.03;;;5.60;99.90;;;;;;5093977;28;20044;-78
2022/12/07 11:59:21;;;;;;;9.98;1.90;;;5.60;99.90;;;;;;5094781;28;20048;-82
2022/12/07 12:02:15;;;;;;;11.70;1.90;;;5.40;99.90;;;;;;5095050;28;20070;-79
2022/12/07 12:04:43;;;;;;;10.93;1.70;;;5.30;99.90;;;;;;5094935;28;20048;-76
2022/12/07 12:07:16;;;;;;;14.63;1.40;;;5.20;99.90;;;;;;5093997;28;20056;-79
2022/12/07 12:09:51;;;;;;;7.75;1.50;;;5.10;99.90;;;;;;5095132;28;20043;-82
2022/12/07 12:12:40;;;;;;;6.60;1.30;;;5.10;99.90;;;;;;5094652;28;20391;-78
2022/12/07 12:15:42;;;;;;;10.68;1.80;;;5.00;99.90;;;;;;5094710;28;20091;-78
2022/12/07 12:18:34;;;;;;;5.25;0.80;;;4.80;99.90;;;;;;5093815;28;20097;-79
2022/12/07 12:21:16;;;;;;;6.80;1.35;;;4.80;99.90;;;;;;5094692;28;20051;-78
2022/12/07 12:23:57;;;;;;;6.80;1.80;;;4.80;99.90;;;;;;5094904;28;20440;-77
2022/12/07 12:26:27;;;;;;;11.65;3.90;;;4.70;99.90;;;;;;5076523;28;20087;-78
2022/12/07 12:28:59;;;;;;;9.48;3.30;;;4.80;99.90;;;;;;5094535;28;20075;-78
2022/12/07 12:31:27;;;;;;;9.45;4.10;;;4.80;99.90;;;;;;5094286;28;20040;-81
2022/12/07 12:34:02;;;;;;;8.18;3.40;;;4.80;99.90;;;;;;5095064;28;20136;-77
2022/12/07 12:36:32;;;;;;;9.43;2.75;;;4.90;99.90;;;;;;5071434;28;20463;-77
2022/12/07 12:38:58;;;;;;;4.88;1.45;;;4.90;99.90;;;;;;5085596;28;20056;-77
2022/12/07 12:44:17;;;;;;;7.53;1.40;;;5.00;99.90;;;;;;5087366;28;20055;-77
2022/12/07 12:46:59;;;;;;;10.82;1.48;;;5.10;99.90;;;;;;5093611;28;20051;-78
2022/12/07 12:49:25;;;;;;;9.95;2.10;;;5.10;99.90;;;;;;5093124;28;20131;-77
2022/12/07 12:51:51;;;;;;;8.30;1.40;;;5.10;99.90;;;;;;5093470;28;20135;-80
2022/12/07 12:54:25;;;;;;;6.07;1.20;;;5.20;99.90;;;;;;5093549;28;20051;-81
2022/12/07 12:57:20;;;;;;;6.32;1.10;;;5.20;99.90;;;;;;5092620;28;20456;-79
2022/12/07 13:00:03;;;;;;;6.82;1.15;;;5.20;99.90;;;;;;5093495;28;20078;-78
2022/12/07 13:02:33;;;;;;;6.47;0.90;;;5.20;99.90;;;;;;5092250;28;20055;-80
2022/12/07 13:05:09;;;;;;;6.68;1.13;;;5.20;99.90;;;;;;5093775;28;20044;-79
2022/12/07 13:07:47;;;;;;;9.52;1.63;;;5.20;99.90;;;;;;5092715;28;20543;-80
2022/12/07 13:10:30;;;;;;;6.40;1.15;;;5.30;99.90;;;;;;5092309;28;20048;-79
2022/12/07 13:13:05;;;;;;;7.38;1.48;;;5.30;99.90;;;;;;5093111;28;20412;-79
2022/12/07 13:15:37;;;;;;;8.45;1.23;;;5.30;99.90;;;;;;5093073;28;20044;-80
2022/12/07 13:18:25;;;;;;;8.55;1.20;;;5.40;99.90;;;;;;5093090;28;20101;-80
2022/12/07 13:21:14;;;;;;;9.88;1.35;;;5.30;99.90;;;;;;5093356;28;20051;-79
2022/12/07 13:23:50;;;;;;;6.03;1.23;;;5.30;99.90;;;;;;5071140;28;20484;-78
2022/12/07 13:26:32;;;;;;;8.32;1.88;;;5.30;99.90;;;;;;5092485;28;20056;-79
2022/12/07 13:29:10;;;;;;;8.07;1.63;;;5.30;99.90;;;;;;5091611;28;20040;-80
2022/12/07 13:31:49;;;;;;;8.35;1.50;;;5.40;99.90;;;;;;5093116;28;20056;-79
2022/12/07 13:34:38;;;;;;;6.50;1.70;;;5.40;99.90;;;;;;5093523;28;20044;-78
2022/12/07 13:37:26;;;;;;;6.63;1.50;;;5.40;99.90;;;;;;5092120;28;20483;-77
2022/12/07 13:39:55;;;;;;;6.35;1.55;;;5.30;99.90;;;;;;5092571;28;20400;-78
2022/12/07 13:42:32;;;;;;;5.43;1.52;;;5.30;99.90;;;;;;5088733;28;20109;-79
2022/12/07 13:45:00;;;;;;;5.90;1.67;;;5.30;99.90;;;;;;5093099;28;20036;-78
2022/12/07 13:47:36;;;;;;;6.18;1.40;;;5.40;99.90;;;;;;5092681;28;20044;-80
2022/12/07 13:50:26;;;;;;;9.07;1.15;;;5.30;99.90;;;;;;5093022;28;20047;-80
2022/12/07 13:52:55;;;;;;;7.57;1.67;;;5.30;99.90;;;;;;5093467;28;20052;-79
2022/12/07 13:55:21;;;;;;;7.70;1.27;;;5.30;99.90;;;;;;5091029;28;20048;-79
2022/12/07 13:57:50;;;;;;;7.97;1.10;;;5.30;99.90;;;;;;5092656;28;20055;-79
2022/12/07 14:00:19;;;;;;;7.80;1.40;;;5.20;99.90;;;;;;5092745;28;20056;-78
2022/12/07 14:03:13;;;;;;;8.15;1.15;;;5.20;99.90;;;;;;5092280;28;20048;-77
2022/12/07 14:05:44;;;;;;;7.75;1.25;;;5.10;99.90;;;;;;5092297;28;20387;-76
2022/12/07 14:08:10;;;;;;;7.53;1.67;;;5.20;99.90;;;;;;5092913;28;20127;-76
2022/12/07 14:10:55;;;;;;;7.67;1.60;;;5.10;99.90;;;;;;5092555;28;20105;-76
2022/12/07 14:13:39;;;;;;;;;;;5.10;99.90;;;;;;5093580;28;20101;-76
2022/12/07 14:16:17;;;;;;;6.53;1.73;;;5.00;99.90;;;;;;5092678;28;19972;-76
2022/12/07 14:18:43;;;;;;;5.93;1.30;;;5.00;99.90;;;;;;5092621;28;20565;-77
2022/12/07 14:21:09;;;;;;;5.50;1.23;;;5.00;99.90;;;;;;5091790;28;20507;-77
2022/12/07 14:23:35;;;;;;;4.93;1.13;;;5.00;99.90;;;;;;5092656;28;20052;-77
2022/12/07 14:26:13;;;;;;;6.05;1.33;;;4.90;99.90;;;;;;5093034;28;20087;-78
2022/12/07 14:28:39;;;;;;;6.80;1.27;;;4.90;99.90;;;;;;5092636;28;20055;-77
2022/12/07 14:31:10;;;;;;;5.20;1.10;;;4.90;99.90;;;;;;5089592;28;20047;-77